sensor_id;sensor_type;location;lat;lon;timestamp;P1;durP1;ratioP1;P2;durP2;ratioP2
22770;SDS011;11552;50.786;4.332;2022-07-29T00:01:41;4.88;;;1.50;;
22770;SDS011;11552;50.786;4.332;2022-07-29T00:04:07;3.70;;;1.50;;
22770;SDS011;11552;50.786;4.332;2022-07-29T00:06:33;3.65;;;1.40;;
22770;SDS011;11552;50.786;4.332;2022-07-29T00:08:58;3.95;;;1.42;;
22770;SDS011;11552;50.786;4.332;2022-07-29T00:11:24;5.90;;;1.50;;
22770;SDS011;11552;50.786;4.332;2022-07-29T00:13:49;4.97;;;1.73;;
22770;SDS011;11552;50.786;4.332;2022-07-29T00:16:15;5.38;;;1.55;;
22770;SDS011;11552;50.786;4.332;2022-07-29T00:18:41;4.07;;;1.60;;
22770;SDS011;11552;50.786;4.332;2022-07-29T00:21:06;5.90;;;1.58;;
22770;SDS011;11552;50.786;4.332;2022-07-29T00:23:32;5.50;;;1.65;;
22770;SDS011;11552;50.786;4.332;2022-07-29T00:25:58;6.88;;;1.85;;
22770;SDS011;11552;50.786;4.332;2022-07-29T00:28:23;7.93;;;1.50;;
22770;SDS011;11552;50.786;4.332;2022-07-29T00:30:49;7.70;;;1.33;;
22770;SDS011;11552;50.786;4.332;2022-07-29T00:33:14;3.60;;;1.42;;
22770;SDS011;11552;50.786;4.332;2022-07-29T00:35:40;2.85;;;1.35;;
22770;SDS011;11552;50.786;4.332;2022-07-29T00:38:12;7.78;;;1.90;;
22770;SDS011;11552;50.786;4.332;2022-07-29T00:40:40;5.35;;;1.35;;
22770;SDS011;11552;50.786;4.332;2022-07-29T00:43:07;3.55;;;1.35;;
22770;SDS011;11552;50.786;4.332;2022-07-29T00:45:32;5.22;;;1.23;;
22770;SDS011;11552;50.786;4.332;2022-07-29T00:47:58;5.13;;;1.60;;
22770;SDS011;11552;50.786;4.332;2022-07-29T00:50:24;6.07;;;1.70;;
22770;SDS011;11552;50.786;4.332;2022-07-29T00:52:50;4.65;;;1.30;;
22770;SDS011;11552;50.786;4.332;2022-07-29T00:55:16;6.03;;;1.60;;
22770;SDS011;11552;50.786;4.332;2022-07-29T00:57:43;4.30;;;1.63;;
22770;SDS011;11552;50.786;4.332;2022-07-29T01:00:11;5.97;;;1.42;;
22770;SDS011;11552;50.786;4.332;2022-07-29T01:02:40;6.28;;;1.60;;
22770;SDS011;11552;50.786;4.332;2022-07-29T01:05:05;4.60;;;1.20;;
22770;SDS011;11552;50.786;4.332;2022-07-29T01:07:32;4.60;;;1.30;;
22770;SDS011;11552;50.786;4.332;2022-07-29T01:10:00;3.05;;;1.30;;
22770;SDS011;11552;50.786;4.332;2022-07-29T01:12:29;4.50;;;1.70;;
22770;SDS011;11552;50.786;4.332;2022-07-29T01:14:59;5.28;;;1.35;;
22770;SDS011;11552;50.786;4.332;2022-07-29T01:18:14;6.43;;;1.40;;
22770;SDS011;11552;50.786;4.332;2022-07-29T01:23:48;4.05;;;1.50;;
22770;SDS011;11552;50.786;4.332;2022-07-29T01:34:15;7.40;;;1.48;;
22770;SDS011;11552;50.786;4.332;2022-07-29T01:36:51;5.80;;;1.70;;
22770;SDS011;11552;50.786;4.332;2022-07-29T01:39:28;4.78;;;1.70;;
22770;SDS011;11552;50.786;4.332;2022-07-29T01:42:12;6.43;;;1.80;;
22770;SDS011;11552;50.786;4.332;2022-07-29T01:47:25;5.95;;;1.88;;
22770;SDS011;11552;50.786;4.332;2022-07-29T01:49:58;3.38;;;1.58;;
22770;SDS011;11552;50.786;4.332;2022-07-29T01:52:27;3.22;;;1.45;;
22770;SDS011;11552;50.786;4.332;2022-07-29T01:55:01;4.82;;;1.50;;
22770;SDS011;11552;50.786;4.332;2022-07-29T01:57:32;8.80;;;1.95;;
22770;SDS011;11552;50.786;4.332;2022-07-29T02:00:01;6.63;;;1.65;;
22770;SDS011;11552;50.786;4.332;2022-07-29T02:02:28;5.22;;;1.50;;
22770;SDS011;11552;50.786;4.332;2022-07-29T02:04:56;7.50;;;1.67;;
22770;SDS011;11552;50.786;4.332;2022-07-29T02:07:23;5.60;;;1.60;;
22770;SDS011;11552;50.786;4.332;2022-07-29T02:09:53;9.65;;;1.77;;
22770;SDS011;11552;50.786;4.332;2022-07-29T02:12:21;8.07;;;1.85;;
22770;SDS011;11552;50.786;4.332;2022-07-29T02:14:50;5.93;;;1.73;;
22770;SDS011;11552;50.786;4.332;2022-07-29T02:17:21;5.60;;;1.85;;
22770;SDS011;11552;50.786;4.332;2022-07-29T02:19:51;6.13;;;1.70;;
22770;SDS011;11552;50.786;4.332;2022-07-29T02:22:23;5.85;;;1.70;;
22770;SDS011;11552;50.786;4.332;2022-07-29T02:24:50;4.25;;;1.67;;
22770;SDS011;11552;50.786;4.332;2022-07-29T02:27:17;5.82;;;1.52;;
22770;SDS011;11552;50.786;4.332;2022-07-29T02:29:45;4.57;;;1.80;;
22770;SDS011;11552;50.786;4.332;2022-07-29T02:32:13;4.78;;;1.35;;
22770;SDS011;11552;50.786;4.332;2022-07-29T02:34:40;5.60;;;1.65;;
22770;SDS011;11552;50.786;4.332;2022-07-29T02:37:08;4.20;;;1.52;;
22770;SDS011;11552;50.786;4.332;2022-07-29T02:39:35;2.90;;;1.40;;
22770;SDS011;11552;50.786;4.332;2022-07-29T02:42:03;11.65;;;1.75;;
22770;SDS011;11552;50.786;4.332;2022-07-29T02:44:30;3.25;;;1.40;;
22770;SDS011;11552;50.786;4.332;2022-07-29T02:47:42;4.68;;;1.60;;
22770;SDS011;11552;50.786;4.332;2022-07-29T02:49:57;4.53;;;1.85;;
22770;SDS011;11552;50.786;4.332;2022-07-29T02:58:02;4.13;;;1.73;;
22770;SDS011;11552;50.786;4.332;2022-07-29T03:00:34;7.85;;;1.73;;
22770;SDS011;11552;50.786;4.332;2022-07-29T03:03:03;5.40;;;1.80;;
22770;SDS011;11552;50.786;4.332;2022-07-29T03:05:38;7.63;;;2.20;;
22770;SDS011;11552;50.786;4.332;2022-07-29T03:08:05;3.38;;;1.70;;
22770;SDS011;11552;50.786;4.332;2022-07-29T03:10:33;5.97;;;2.33;;
22770;SDS011;11552;50.786;4.332;2022-07-29T03:13:02;8.48;;;2.28;;
22770;SDS011;11552;50.786;4.332;2022-07-29T03:15:30;5.35;;;1.77;;
22770;SDS011;11552;50.786;4.332;2022-07-29T03:17:56;4.45;;;1.60;;
22770;SDS011;11552;50.786;4.332;2022-07-29T03:20:24;5.13;;;2.10;;
22770;SDS011;11552;50.786;4.332;2022-07-29T03:22:50;5.93;;;1.58;;
22770;SDS011;11552;50.786;4.332;2022-07-29T03:25:16;10.45;;;5.15;;
22770;SDS011;11552;50.786;4.332;2022-07-29T03:27:44;4.20;;;1.80;;
22770;SDS011;11552;50.786;4.332;2022-07-29T03:30:11;4.50;;;1.75;;
22770;SDS011;11552;50.786;4.332;2022-07-29T03:32:37;5.15;;;1.52;;
22770;SDS011;11552;50.786;4.332;2022-07-29T03:35:03;6.60;;;2.00;;
22770;SDS011;11552;50.786;4.332;2022-07-29T03:37:29;4.07;;;1.70;;
22770;SDS011;11552;50.786;4.332;2022-07-29T03:39:58;4.18;;;1.60;;
22770;SDS011;11552;50.786;4.332;2022-07-29T03:42:31;4.40;;;1.40;;
22770;SDS011;11552;50.786;4.332;2022-07-29T03:44:59;7.00;;;1.83;;
22770;SDS011;11552;50.786;4.332;2022-07-29T03:47:28;4.00;;;1.60;;
22770;SDS011;11552;50.786;4.332;2022-07-29T03:49:57;5.25;;;2.17;;
22770;SDS011;11552;50.786;4.332;2022-07-29T03:52:26;5.07;;;1.80;;
22770;SDS011;11552;50.786;4.332;2022-07-29T03:54:52;5.03;;;1.70;;
22770;SDS011;11552;50.786;4.332;2022-07-29T03:57:18;4.13;;;1.75;;
22770;SDS011;11552;50.786;4.332;2022-07-29T03:59:48;6.15;;;1.98;;
22770;SDS011;11552;50.786;4.332;2022-07-29T04:02:15;6.55;;;2.28;;
22770;SDS011;11552;50.786;4.332;2022-07-29T04:04:41;5.53;;;1.85;;
22770;SDS011;11552;50.786;4.332;2022-07-29T04:07:07;3.85;;;1.90;;
22770;SDS011;11552;50.786;4.332;2022-07-29T04:09:37;7.57;;;1.88;;
22770;SDS011;11552;50.786;4.332;2022-07-29T04:12:03;5.45;;;1.80;;
22770;SDS011;11552;50.786;4.332;2022-07-29T04:14:29;3.78;;;1.67;;
22770;SDS011;11552;50.786;4.332;2022-07-29T04:16:59;5.80;;;1.90;;
22770;SDS011;11552;50.786;4.332;2022-07-29T04:19:25;4.50;;;1.85;;
22770;SDS011;11552;50.786;4.332;2022-07-29T04:21:51;6.20;;;1.95;;
22770;SDS011;11552;50.786;4.332;2022-07-29T04:24:17;5.22;;;1.90;;
22770;SDS011;11552;50.786;4.332;2022-07-29T04:26:42;14.25;;;3.40;;
22770;SDS011;11552;50.786;4.332;2022-07-29T04:29:08;6.43;;;2.03;;
22770;SDS011;11552;50.786;4.332;2022-07-29T04:31:34;5.93;;;1.77;;
22770;SDS011;11552;50.786;4.332;2022-07-29T04:34:00;4.78;;;2.08;;
22770;SDS011;11552;50.786;4.332;2022-07-29T04:36:25;14.00;;;3.10;;
22770;SDS011;11552;50.786;4.332;2022-07-29T04:38:51;6.03;;;2.15;;
22770;SDS011;11552;50.786;4.332;2022-07-29T04:41:16;3.55;;;2.20;;
22770;SDS011;11552;50.786;4.332;2022-07-29T04:43:42;7.38;;;1.90;;
22770;SDS011;11552;50.786;4.332;2022-07-29T04:46:08;11.45;;;2.50;;
22770;SDS011;11552;50.786;4.332;2022-07-29T04:48:33;6.00;;;2.25;;
22770;SDS011;11552;50.786;4.332;2022-07-29T04:50:59;14.43;;;2.75;;
22770;SDS011;11552;50.786;4.332;2022-07-29T04:53:25;6.07;;;2.42;;
22770;SDS011;11552;50.786;4.332;2022-07-29T04:55:51;6.70;;;2.40;;
22770;SDS011;11552;50.786;4.332;2022-07-29T04:58:16;8.40;;;2.00;;
22770;SDS011;11552;50.786;4.332;2022-07-29T05:00:42;6.65;;;2.10;;
22770;SDS011;11552;50.786;4.332;2022-07-29T05:03:08;4.10;;;2.03;;
22770;SDS011;11552;50.786;4.332;2022-07-29T05:05:33;6.80;;;2.30;;
22770;SDS011;11552;50.786;4.332;2022-07-29T05:07:59;4.90;;;2.55;;
22770;SDS011;11552;50.786;4.332;2022-07-29T05:10:25;6.07;;;2.28;;
22770;SDS011;11552;50.786;4.332;2022-07-29T05:12:51;9.45;;;2.65;;
22770;SDS011;11552;50.786;4.332;2022-07-29T05:15:17;7.55;;;2.70;;
22770;SDS011;11552;50.786;4.332;2022-07-29T05:17:43;9.63;;;3.28;;
22770;SDS011;11552;50.786;4.332;2022-07-29T05:20:09;7.68;;;2.53;;
22770;SDS011;11552;50.786;4.332;2022-07-29T05:22:35;9.40;;;2.90;;
22770;SDS011;11552;50.786;4.332;2022-07-29T05:25:01;5.63;;;2.65;;
22770;SDS011;11552;50.786;4.332;2022-07-29T05:27:27;11.50;;;3.10;;
22770;SDS011;11552;50.786;4.332;2022-07-29T05:29:53;5.32;;;2.03;;
22770;SDS011;11552;50.786;4.332;2022-07-29T05:32:18;6.95;;;2.53;;
22770;SDS011;11552;50.786;4.332;2022-07-29T05:34:44;6.03;;;2.47;;
22770;SDS011;11552;50.786;4.332;2022-07-29T05:37:09;3.65;;;2.00;;
22770;SDS011;11552;50.786;4.332;2022-07-29T05:39:35;7.43;;;2.70;;
22770;SDS011;11552;50.786;4.332;2022-07-29T05:42:01;7.15;;;2.50;;
22770;SDS011;11552;50.786;4.332;2022-07-29T05:44:27;5.22;;;2.47;;
22770;SDS011;11552;50.786;4.332;2022-07-29T05:46:53;7.97;;;2.58;;
22770;SDS011;11552;50.786;4.332;2022-07-29T05:49:19;5.40;;;2.22;;
22770;SDS011;11552;50.786;4.332;2022-07-29T05:51:44;7.50;;;3.00;;
22770;SDS011;11552;50.786;4.332;2022-07-29T05:54:10;7.55;;;2.83;;
22770;SDS011;11552;50.786;4.332;2022-07-29T05:56:36;5.72;;;3.25;;
22770;SDS011;11552;50.786;4.332;2022-07-29T05:59:02;4.68;;;2.92;;
22770;SDS011;11552;50.786;4.332;2022-07-29T06:01:28;7.93;;;3.05;;
22770;SDS011;11552;50.786;4.332;2022-07-29T06:03:53;4.05;;;2.75;;
22770;SDS011;11552;50.786;4.332;2022-07-29T06:06:19;7.60;;;3.22;;
22770;SDS011;11552;50.786;4.332;2022-07-29T06:08:45;4.43;;;2.67;;
22770;SDS011;11552;50.786;4.332;2022-07-29T06:11:10;6.53;;;3.42;;
22770;SDS011;11552;50.786;4.332;2022-07-29T06:13:36;5.78;;;3.17;;
22770;SDS011;11552;50.786;4.332;2022-07-29T06:16:02;4.00;;;2.90;;
22770;SDS011;11552;50.786;4.332;2022-07-29T06:18:28;6.55;;;3.38;;
22770;SDS011;11552;50.786;4.332;2022-07-29T06:20:53;6.93;;;3.40;;
22770;SDS011;11552;50.786;4.332;2022-07-29T06:23:19;5.72;;;3.70;;
22770;SDS011;11552;50.786;4.332;2022-07-29T06:25:46;4.80;;;3.17;;
22770;SDS011;11552;50.786;4.332;2022-07-29T06:28:11;9.05;;;3.58;;
22770;SDS011;11552;50.786;4.332;2022-07-29T06:30:37;6.53;;;4.00;;
22770;SDS011;11552;50.786;4.332;2022-07-29T06:33:04;8.02;;;3.45;;
22770;SDS011;11552;50.786;4.332;2022-07-29T06:35:29;5.85;;;3.33;;
22770;SDS011;11552;50.786;4.332;2022-07-29T06:37:57;7.32;;;3.88;;
22770;SDS011;11552;50.786;4.332;2022-07-29T06:40:23;7.85;;;3.75;;
22770;SDS011;11552;50.786;4.332;2022-07-29T06:43:07;8.10;;;3.92;;
22770;SDS011;11552;50.786;4.332;2022-07-29T06:45:33;8.93;;;3.60;;
22770;SDS011;11552;50.786;4.332;2022-07-29T06:47:59;8.70;;;3.65;;
22770;SDS011;11552;50.786;4.332;2022-07-29T06:50:25;7.82;;;3.45;;
22770;SDS011;11552;50.786;4.332;2022-07-29T06:52:51;7.85;;;3.83;;
22770;SDS011;11552;50.786;4.332;2022-07-29T06:55:16;7.25;;;3.55;;
22770;SDS011;11552;50.786;4.332;2022-07-29T06:57:44;9.18;;;3.72;;
22770;SDS011;11552;50.786;4.332;2022-07-29T07:00:11;7.45;;;3.67;;
22770;SDS011;11552;50.786;4.332;2022-07-29T07:02:37;6.35;;;3.45;;
22770;SDS011;11552;50.786;4.332;2022-07-29T07:05:03;7.70;;;3.33;;
22770;SDS011;11552;50.786;4.332;2022-07-29T07:07:30;7.45;;;3.30;;
22770;SDS011;11552;50.786;4.332;2022-07-29T07:09:56;9.45;;;3.30;;
22770;SDS011;11552;50.786;4.332;2022-07-29T07:12:21;13.27;;;6.43;;
22770;SDS011;11552;50.786;4.332;2022-07-29T07:14:47;13.98;;;4.40;;
22770;SDS011;11552;50.786;4.332;2022-07-29T07:17:13;7.60;;;3.72;;
22770;SDS011;11552;50.786;4.332;2022-07-29T07:19:38;12.20;;;4.00;;
22770;SDS011;11552;50.786;4.332;2022-07-29T07:22:04;8.93;;;3.85;;
22770;SDS011;11552;50.786;4.332;2022-07-29T07:24:30;7.47;;;3.53;;
22770;SDS011;11552;50.786;4.332;2022-07-29T07:26:55;8.45;;;3.53;;
22770;SDS011;11552;50.786;4.332;2022-07-29T07:29:21;9.98;;;3.65;;
22770;SDS011;11552;50.786;4.332;2022-07-29T07:31:46;7.40;;;3.95;;
22770;SDS011;11552;50.786;4.332;2022-07-29T07:34:12;7.00;;;3.75;;
22770;SDS011;11552;50.786;4.332;2022-07-29T07:36:38;9.15;;;4.13;;
22770;SDS011;11552;50.786;4.332;2022-07-29T07:39:03;7.20;;;3.88;;
22770;SDS011;11552;50.786;4.332;2022-07-29T07:41:30;10.48;;;4.20;;
22770;SDS011;11552;50.786;4.332;2022-07-29T07:43:56;9.80;;;3.40;;
22770;SDS011;11552;50.786;4.332;2022-07-29T07:46:21;9.95;;;4.30;;
22770;SDS011;11552;50.786;4.332;2022-07-29T07:48:47;7.68;;;3.60;;
22770;SDS011;11552;50.786;4.332;2022-07-29T07:51:12;8.40;;;3.80;;
22770;SDS011;11552;50.786;4.332;2022-07-29T07:53:38;9.30;;;3.90;;
22770;SDS011;11552;50.786;4.332;2022-07-29T07:56:04;6.93;;;3.50;;
22770;SDS011;11552;50.786;4.332;2022-07-29T07:58:31;6.15;;;3.33;;
22770;SDS011;11552;50.786;4.332;2022-07-29T08:00:57;6.97;;;3.00;;
22770;SDS011;11552;50.786;4.332;2022-07-29T08:03:22;6.78;;;3.10;;
22770;SDS011;11552;50.786;4.332;2022-07-29T08:05:48;5.13;;;2.90;;
22770;SDS011;11552;50.786;4.332;2022-07-29T08:08:15;6.00;;;2.90;;
22770;SDS011;11552;50.786;4.332;2022-07-29T08:10:41;8.50;;;3.42;;
22770;SDS011;11552;50.786;4.332;2022-07-29T08:13:21;5.10;;;2.67;;
22770;SDS011;11552;50.786;4.332;2022-07-29T08:15:49;5.15;;;2.92;;
22770;SDS011;11552;50.786;4.332;2022-07-29T08:18:25;5.00;;;2.78;;
22770;SDS011;11552;50.786;4.332;2022-07-29T08:20:55;7.78;;;3.42;;
22770;SDS011;11552;50.786;4.332;2022-07-29T08:23:21;7.07;;;3.22;;
22770;SDS011;11552;50.786;4.332;2022-07-29T08:25:48;8.70;;;2.80;;
22770;SDS011;11552;50.786;4.332;2022-07-29T08:28:14;7.78;;;2.63;;
22770;SDS011;11552;50.786;4.332;2022-07-29T08:30:40;10.50;;;2.90;;
22770;SDS011;11552;50.786;4.332;2022-07-29T08:33:05;8.20;;;3.08;;
22770;SDS011;11552;50.786;4.332;2022-07-29T08:35:31;8.93;;;2.75;;
22770;SDS011;11552;50.786;4.332;2022-07-29T08:37:57;4.72;;;2.78;;
22770;SDS011;11552;50.786;4.332;2022-07-29T08:40:23;6.72;;;2.38;;
22770;SDS011;11552;50.786;4.332;2022-07-29T08:42:49;6.50;;;2.10;;
22770;SDS011;11552;50.786;4.332;2022-07-29T08:45:15;6.68;;;2.88;;
22770;SDS011;11552;50.786;4.332;2022-07-29T08:47:41;5.95;;;2.20;;
22770;SDS011;11552;50.786;4.332;2022-07-29T08:50:10;7.75;;;3.05;;
22770;SDS011;11552;50.786;4.332;2022-07-29T08:52:37;5.10;;;2.10;;
22770;SDS011;11552;50.786;4.332;2022-07-29T08:55:04;5.88;;;2.33;;
22770;SDS011;11552;50.786;4.332;2022-07-29T08:57:31;5.45;;;2.33;;
22770;SDS011;11552;50.786;4.332;2022-07-29T08:59:59;3.42;;;1.95;;
22770;SDS011;11552;50.786;4.332;2022-07-29T09:02:25;5.97;;;1.92;;
22770;SDS011;11552;50.786;4.332;2022-07-29T09:04:54;4.22;;;1.55;;
22770;SDS011;11552;50.786;4.332;2022-07-29T09:07:23;5.00;;;1.95;;
22770;SDS011;11552;50.786;4.332;2022-07-29T09:09:48;7.05;;;1.67;;
22770;SDS011;11552;50.786;4.332;2022-07-29T09:12:14;3.22;;;1.40;;
22770;SDS011;11552;50.786;4.332;2022-07-29T09:14:40;3.88;;;1.50;;
22770;SDS011;11552;50.786;4.332;2022-07-29T09:17:06;4.45;;;1.40;;
22770;SDS011;11552;50.786;4.332;2022-07-29T09:19:34;3.80;;;1.60;;
22770;SDS011;11552;50.786;4.332;2022-07-29T09:22:03;5.65;;;1.90;;
22770;SDS011;11552;50.786;4.332;2022-07-29T09:27:19;3.13;;;1.40;;
22770;SDS011;11552;50.786;4.332;2022-07-29T09:29:47;4.53;;;1.60;;
22770;SDS011;11552;50.786;4.332;2022-07-29T09:32:21;5.57;;;1.77;;
22770;SDS011;11552;50.786;4.332;2022-07-29T09:34:46;5.00;;;1.80;;
22770;SDS011;11552;50.786;4.332;2022-07-29T09:37:12;6.65;;;1.98;;
22770;SDS011;11552;50.786;4.332;2022-07-29T09:39:51;4.28;;;1.80;;
22770;SDS011;11552;50.786;4.332;2022-07-29T09:42:26;4.35;;;1.90;;
22770;SDS011;11552;50.786;4.332;2022-07-29T09:44:53;6.95;;;1.90;;
22770;SDS011;11552;50.786;4.332;2022-07-29T09:47:18;6.70;;;1.90;;
22770;SDS011;11552;50.786;4.332;2022-07-29T09:49:50;3.72;;;1.55;;
22770;SDS011;11552;50.786;4.332;2022-07-29T09:52:23;6.00;;;1.65;;
22770;SDS011;11552;50.786;4.332;2022-07-29T09:54:49;6.15;;;1.92;;
22770;SDS011;11552;50.786;4.332;2022-07-29T09:57:48;7.60;;;1.95;;
22770;SDS011;11552;50.786;4.332;2022-07-29T10:00:11;6.50;;;2.00;;
22770;SDS011;11552;50.786;4.332;2022-07-29T10:02:40;4.18;;;1.98;;
22770;SDS011;11552;50.786;4.332;2022-07-29T10:05:24;4.18;;;1.95;;
22770;SDS011;11552;50.786;4.332;2022-07-29T10:07:52;5.63;;;1.88;;
22770;SDS011;11552;50.786;4.332;2022-07-29T10:10:20;5.07;;;1.85;;
22770;SDS011;11552;50.786;4.332;2022-07-29T10:12:51;6.63;;;2.20;;
22770;SDS011;11552;50.786;4.332;2022-07-29T10:15:27;4.97;;;2.08;;
22770;SDS011;11552;50.786;4.332;2022-07-29T10:17:55;5.45;;;1.90;;
22770;SDS011;11552;50.786;4.332;2022-07-29T10:20:22;5.80;;;1.90;;
22770;SDS011;11552;50.786;4.332;2022-07-29T10:22:48;7.78;;;2.08;;
22770;SDS011;11552;50.786;4.332;2022-07-29T10:25:15;7.95;;;1.98;;
22770;SDS011;11552;50.786;4.332;2022-07-29T10:27:42;6.78;;;1.70;;
22770;SDS011;11552;50.786;4.332;2022-07-29T10:30:10;4.57;;;1.73;;
22770;SDS011;11552;50.786;4.332;2022-07-29T10:46:34;5.30;;;1.80;;
22770;SDS011;11552;50.786;4.332;2022-07-29T10:49:17;4.10;;;1.58;;
22770;SDS011;11552;50.786;4.332;2022-07-29T10:59:41;5.70;;;1.60;;
22770;SDS011;11552;50.786;4.332;2022-07-29T11:05:18;7.25;;;2.53;;
22770;SDS011;11552;50.786;4.332;2022-07-29T11:10:41;9.45;;;2.63;;
22770;SDS011;11552;50.786;4.332;2022-07-29T11:13:07;3.70;;;1.77;;
22770;SDS011;11552;50.786;4.332;2022-07-29T11:15:51;9.45;;;2.38;;
22770;SDS011;11552;50.786;4.332;2022-07-29T11:18:18;6.70;;;2.25;;
22770;SDS011;11552;50.786;4.332;2022-07-29T11:20:47;4.68;;;1.98;;
22770;SDS011;11552;50.786;4.332;2022-07-29T11:23:28;6.13;;;2.00;;
22770;SDS011;11552;50.786;4.332;2022-07-29T11:31:38;7.80;;;2.13;;
22770;SDS011;11552;50.786;4.332;2022-07-29T11:39:32;4.72;;;1.77;;
22770;SDS011;11552;50.786;4.332;2022-07-29T11:44:53;6.10;;;2.10;;
22770;SDS011;11552;50.786;4.332;2022-07-29T11:47:26;4.93;;;1.60;;
22770;SDS011;11552;50.786;4.332;2022-07-29T11:49:54;5.30;;;1.73;;
22770;SDS011;11552;50.786;4.332;2022-07-29T11:52:22;7.03;;;2.63;;
22770;SDS011;11552;50.786;4.332;2022-07-29T11:54:48;5.32;;;2.00;;
22770;SDS011;11552;50.786;4.332;2022-07-29T11:57:19;6.35;;;1.95;;
22770;SDS011;11552;50.786;4.332;2022-07-29T11:59:45;7.00;;;2.67;;
22770;SDS011;11552;50.786;4.332;2022-07-29T12:02:12;10.10;;;2.13;;
22770;SDS011;11552;50.786;4.332;2022-07-29T12:04:50;7.70;;;2.50;;
22770;SDS011;11552;50.786;4.332;2022-07-29T12:07:16;5.63;;;2.25;;
22770;SDS011;11552;50.786;4.332;2022-07-29T12:09:49;6.88;;;2.20;;
22770;SDS011;11552;50.786;4.332;2022-07-29T12:12:19;6.18;;;2.85;;
22770;SDS011;11552;50.786;4.332;2022-07-29T12:14:45;6.00;;;2.70;;
22770;SDS011;11552;50.786;4.332;2022-07-29T12:19:57;7.85;;;2.35;;
22770;SDS011;11552;50.786;4.332;2022-07-29T12:22:31;5.63;;;2.33;;
22770;SDS011;11552;50.786;4.332;2022-07-29T12:25:02;6.03;;;2.60;;
22770;SDS011;11552;50.786;4.332;2022-07-29T12:27:29;8.55;;;3.05;;
22770;SDS011;11552;50.786;4.332;2022-07-29T12:29:59;11.38;;;2.80;;
22770;SDS011;11552;50.786;4.332;2022-07-29T12:32:40;7.95;;;2.28;;
22770;SDS011;11552;50.786;4.332;2022-07-29T12:35:14;7.55;;;2.17;;
22770;SDS011;11552;50.786;4.332;2022-07-29T12:37:43;4.45;;;2.15;;
22770;SDS011;11552;50.786;4.332;2022-07-29T12:40:10;5.53;;;2.15;;
22770;SDS011;11552;50.786;4.332;2022-07-29T12:42:37;5.32;;;2.13;;
22770;SDS011;11552;50.786;4.332;2022-07-29T12:45:04;6.65;;;1.90;;
22770;SDS011;11552;50.786;4.332;2022-07-29T12:47:31;10.15;;;2.72;;
22770;SDS011;11552;50.786;4.332;2022-07-29T12:52:36;5.47;;;2.25;;
22770;SDS011;11552;50.786;4.332;2022-07-29T12:55:03;4.82;;;1.83;;
22770;SDS011;11552;50.786;4.332;2022-07-29T12:57:29;4.05;;;2.00;;
22770;SDS011;11552;50.786;4.332;2022-07-29T13:00:00;6.32;;;2.15;;
22770;SDS011;11552;50.786;4.332;2022-07-29T13:02:28;7.00;;;2.42;;
22770;SDS011;11552;50.786;4.332;2022-07-29T13:04:55;4.78;;;2.50;;
22770;SDS011;11552;50.786;4.332;2022-07-29T13:07:25;5.45;;;2.03;;
22770;SDS011;11552;50.786;4.332;2022-07-29T13:13:04;6.40;;;2.28;;
22770;SDS011;11552;50.786;4.332;2022-07-29T13:15:38;8.05;;;1.80;;
22770;SDS011;11552;50.786;4.332;2022-07-29T13:18:25;5.18;;;1.85;;
22770;SDS011;11552;50.786;4.332;2022-07-29T13:21:09;5.07;;;1.92;;
22770;SDS011;11552;50.786;4.332;2022-07-29T13:23:37;9.00;;;2.00;;
22770;SDS011;11552;50.786;4.332;2022-07-29T13:26:10;7.22;;;2.25;;
22770;SDS011;11552;50.786;4.332;2022-07-29T13:31:02;6.07;;;1.83;;
22770;SDS011;11552;50.786;4.332;2022-07-29T13:33:28;12.52;;;2.40;;
22770;SDS011;11552;50.786;4.332;2022-07-29T13:35:53;7.10;;;1.58;;
22770;SDS011;11552;50.786;4.332;2022-07-29T13:38:19;7.65;;;1.63;;
22770;SDS011;11552;50.786;4.332;2022-07-29T13:40:45;6.57;;;1.88;;
22770;SDS011;11552;50.786;4.332;2022-07-29T13:43:11;6.70;;;1.77;;
22770;SDS011;11552;50.786;4.332;2022-07-29T13:45:36;8.00;;;2.10;;
22770;SDS011;11552;50.786;4.332;2022-07-29T13:48:02;5.93;;;1.83;;
22770;SDS011;11552;50.786;4.332;2022-07-29T13:50:29;7.53;;;2.05;;
22770;SDS011;11552;50.786;4.332;2022-07-29T13:52:54;11.43;;;2.10;;
22770;SDS011;11552;50.786;4.332;2022-07-29T13:55:20;8.52;;;1.88;;
22770;SDS011;11552;50.786;4.332;2022-07-29T13:57:46;6.85;;;1.90;;
22770;SDS011;11552;50.786;4.332;2022-07-29T14:00:12;7.78;;;1.90;;
22770;SDS011;11552;50.786;4.332;2022-07-29T14:02:38;5.18;;;1.67;;
22770;SDS011;11552;50.786;4.332;2022-07-29T14:05:05;8.15;;;1.92;;
22770;SDS011;11552;50.786;4.332;2022-07-29T14:07:31;7.75;;;1.77;;
22770;SDS011;11552;50.786;4.332;2022-07-29T14:09:57;6.30;;;1.80;;
22770;SDS011;11552;50.786;4.332;2022-07-29T14:12:23;7.25;;;1.52;;
22770;SDS011;11552;50.786;4.332;2022-07-29T14:14:48;10.80;;;1.70;;
22770;SDS011;11552;50.786;4.332;2022-07-29T14:17:14;5.40;;;1.60;;
22770;SDS011;11552;50.786;4.332;2022-07-29T14:19:40;3.60;;;1.55;;
22770;SDS011;11552;50.786;4.332;2022-07-29T14:22:07;6.40;;;1.75;;
22770;SDS011;11552;50.786;4.332;2022-07-29T14:24:33;5.50;;;1.88;;
22770;SDS011;11552;50.786;4.332;2022-07-29T14:27:00;13.25;;;1.67;;
22770;SDS011;11552;50.786;4.332;2022-07-29T14:29:25;5.38;;;1.65;;
22770;SDS011;11552;50.786;4.332;2022-07-29T14:31:51;4.35;;;1.60;;
22770;SDS011;11552;50.786;4.332;2022-07-29T14:34:17;6.40;;;1.40;;
22770;SDS011;11552;50.786;4.332;2022-07-29T14:36:42;5.07;;;1.30;;
22770;SDS011;11552;50.786;4.332;2022-07-29T14:39:08;7.75;;;2.08;;
22770;SDS011;11552;50.786;4.332;2022-07-29T14:41:34;5.13;;;1.40;;
22770;SDS011;11552;50.786;4.332;2022-07-29T14:44:00;5.28;;;1.70;;
22770;SDS011;11552;50.786;4.332;2022-07-29T14:46:26;8.80;;;1.70;;
22770;SDS011;11552;50.786;4.332;2022-07-29T14:48:52;2.95;;;1.30;;
22770;SDS011;11552;50.786;4.332;2022-07-29T14:51:18;7.00;;;1.77;;
22770;SDS011;11552;50.786;4.332;2022-07-29T14:53:43;6.95;;;1.70;;
22770;SDS011;11552;50.786;4.332;2022-07-29T14:56:09;5.15;;;1.55;;
22770;SDS011;11552;50.786;4.332;2022-07-29T14:58:35;6.05;;;1.63;;
22770;SDS011;11552;50.786;4.332;2022-07-29T15:01:00;5.72;;;1.40;;
22770;SDS011;11552;50.786;4.332;2022-07-29T15:03:26;6.05;;;1.50;;
22770;SDS011;11552;50.786;4.332;2022-07-29T15:05:55;9.50;;;2.20;;
22770;SDS011;11552;50.786;4.332;2022-07-29T15:08:21;3.63;;;1.77;;
22770;SDS011;11552;50.786;4.332;2022-07-29T15:10:46;4.95;;;1.20;;
22770;SDS011;11552;50.786;4.332;2022-07-29T15:13:12;5.60;;;1.30;;
22770;SDS011;11552;50.786;4.332;2022-07-29T15:15:38;7.47;;;2.00;;
22770;SDS011;11552;50.786;4.332;2022-07-29T15:18:03;5.95;;;1.40;;
22770;SDS011;11552;50.786;4.332;2022-07-29T15:20:29;5.70;;;1.80;;
22770;SDS011;11552;50.786;4.332;2022-07-29T15:22:55;3.75;;;1.52;;
22770;SDS011;11552;50.786;4.332;2022-07-29T15:25:21;4.68;;;1.50;;
22770;SDS011;11552;50.786;4.332;2022-07-29T15:27:48;5.13;;;1.45;;
22770;SDS011;11552;50.786;4.332;2022-07-29T15:30:13;6.90;;;1.58;;
22770;SDS011;11552;50.786;4.332;2022-07-29T15:32:42;7.15;;;1.52;;
22770;SDS011;11552;50.786;4.332;2022-07-29T15:35:08;10.13;;;1.85;;
22770;SDS011;11552;50.786;4.332;2022-07-29T15:37:35;3.35;;;1.50;;
22770;SDS011;11552;50.786;4.332;2022-07-29T15:40:05;6.40;;;1.77;;
22770;SDS011;11552;50.786;4.332;2022-07-29T15:42:31;6.20;;;1.80;;
22770;SDS011;11552;50.786;4.332;2022-07-29T15:44:57;6.22;;;2.10;;
22770;SDS011;11552;50.786;4.332;2022-07-29T15:47:27;5.45;;;2.28;;
22770;SDS011;11552;50.786;4.332;2022-07-29T15:49:53;5.45;;;1.98;;
22770;SDS011;11552;50.786;4.332;2022-07-29T15:52:19;7.38;;;1.95;;
22770;SDS011;11552;50.786;4.332;2022-07-29T15:54:45;5.30;;;1.83;;
22770;SDS011;11552;50.786;4.332;2022-07-29T15:57:11;7.00;;;2.08;;
22770;SDS011;11552;50.786;4.332;2022-07-29T15:59:36;6.28;;;2.00;;
22770;SDS011;11552;50.786;4.332;2022-07-29T16:02:02;8.50;;;2.35;;
22770;SDS011;11552;50.786;4.332;2022-07-29T16:04:28;11.68;;;2.58;;
22770;SDS011;11552;50.786;4.332;2022-07-29T16:06:54;6.10;;;2.45;;